Terminal Aerodrome Forecast
Issued by NWS Cleveland, OH

Home | Current Version | Previous Version | Graphics & Text | Print | Product List | Glossary On
Versions: 1 2 3 4 5 6 7 8 9 10 11 12 13 14 15 16
000
FTUS41 KCLE 300532
TAFCLE
TAF
KCLE 300532Z 3006/3112 18010KT P6SM SCT070 BKN150
     FM301400 20012KT P6SM VCSH SCT050 BKN150
     FM302000 22012G18KT 6SM -TSRA OVC040CB
     FM302300 24007KT 4SM -TSRA BR OVC035CB
     FM310300 03008KT 3SM -SHRA BR OVC015
     FM310800 05014KT 3SM -SHRA BR BKN008 OVC015=

USA.gov is the U.S. government's official web portal to all federal, state and local government web resources and services.